Time;durP1;ratioP1;P1;durP2;ratioP2;P2;SDS_P1;SDS_P2;PMS_P1;PMS_P2;Temp;Humidity;BMP_temperature;BMP_pressure;BME280_temperature;BME280_humidity;BME280_pressure;Samples;Min_cycle;Max_cycle;Signal;HPM_P1;HPM_P2
2021/06/05 00:02:05;;;;;;;384.85;109.50;;;;;;;15.47;100.00;101951.72;5244729;28;20020;-84
2021/06/05 00:04:35;;;;;;;414.08;114.85;;;;;;;15.48;100.00;101951.56;5244878;28;20028;-84
2021/06/05 00:07:06;;;;;;;378.10;106.05;;;;;;;15.47;100.00;101952.56;5244554;28;20502;-84
2021/06/05 00:09:37;;;;;;;402.88;108.35;;;;;;;15.46;100.00;101959.00;5235450;28;20029;-84
2021/06/05 00:12:09;;;;;;;392.63;108.20;;;;;;;15.49;100.00;101958.66;5229464;28;20111;-84
2021/06/05 00:14:39;;;;;;;407.58;113.30;;;;;;;15.50;100.00;101965.75;5246360;28;20492;-84
2021/06/05 00:17:11;;;;;;;450.67;123.15;;;;;;;15.54;100.00;101966.25;5246715;28;20030;-84
2021/06/05 00:19:41;;;;;;;458.17;125.30;;;;;;;15.58;100.00;101972.16;5246826;28;20051;-84
2021/06/05 00:22:12;;;;;;;469.50;125.00;;;;;;;15.54;100.00;101971.66;5246578;28;20443;-84
2021/06/05 00:24:43;;;;;;;435.23;117.30;;;;;;;15.56;100.00;101977.72;5248442;28;20077;-84
2021/06/05 00:27:13;;;;;;;449.20;126.07;;;;;;;15.57;100.00;101976.72;5244025;28;20503;-84
2021/06/05 00:29:44;;;;;;;470.92;128.63;;;;;;;15.57;100.00;101978.59;5244933;28;20082;-84
2021/06/05 00:32:14;;;;;;;482.83;128.00;;;;;;;15.63;100.00;101980.59;5244218;28;20074;-84
2021/06/05 00:34:45;;;;;;;465.98;124.28;;;;;;;15.68;100.00;101992.63;5244135;28;20312;-85
2021/06/05 00:37:15;;;;;;;460.58;123.95;;;;;;;15.70;100.00;101984.34;5244252;28;20025;-84
2021/06/05 00:39:46;;;;;;;456.45;123.22;;;;;;;15.74;100.00;101982.97;5243728;28;20021;-84
2021/06/05 00:42:16;;;;;;;445.45;123.63;;;;;;;15.78;100.00;101990.56;5244247;28;20140;-84
2021/06/05 00:44:47;;;;;;;484.40;127.13;;;;;;;15.80;100.00;101993.94;5244034;28;20040;-84
2021/06/05 00:47:17;;;;;;;479.25;127.28;;;;;;;15.83;100.00;101981.94;5244041;28;20028;-84
2021/06/05 00:49:48;;;;;;;454.02;125.82;;;;;;;15.88;100.00;101990.38;5243668;28;20221;-84
2021/06/05 00:52:23;;;;;;;467.48;127.75;;;;;;;15.87;100.00;101994.13;5243445;28;20025;-84
2021/06/05 00:54:54;;;;;;;482.23;126.07;;;;;;;15.88;100.00;101995.81;5243963;28;20024;-84
2021/06/05 00:57:24;;;;;;;499.45;131.20;;;;;;;15.84;100.00;101994.44;5243558;28;20116;-85
2021/06/05 00:59:55;;;;;;;504.45;134.75;;;;;;;15.86;100.00;102010.50;5243632;28;20107;-84
2021/06/05 01:02:25;;;;;;;480.17;127.22;;;;;;;15.95;100.00;102002.19;5243498;28;20024;-84
2021/06/05 01:04:56;;;;;;;480.20;129.88;;;;;;;15.93;100.00;102004.25;5243876;28;20086;-84
2021/06/05 01:07:32;;;;;;;519.85;130.93;;;;;;;15.90;100.00;102010.00;5243568;28;20025;-84
2021/06/05 01:10:06;;;;;;;469.35;126.65;;;;;;;15.79;100.00;102005.78;5243668;28;20052;-84
2021/06/05 01:12:48;;;;;;;493.80;125.13;;;;;;;15.79;100.00;102002.25;5242630;28;20028;-84
2021/06/05 01:15:27;;;;;;;488.90;123.45;;;;;;;15.77;100.00;102009.69;5244682;28;20158;-84
2021/06/05 01:18:05;;;;;;;468.27;123.85;;;;;;;15.79;100.00;102015.78;5244325;28;20051;-84
2021/06/05 01:20:53;;;;;;;490.95;129.38;;;;;;;15.71;100.00;102004.97;5244455;28;20027;-84
2021/06/05 01:23:28;;;;;;;454.08;121.03;;;;;;;15.73;100.00;102008.34;5243935;28;20024;-84
2021/06/05 01:26:07;;;;;;;487.02;128.85;;;;;;;15.80;100.00;101998.50;5244559;28;20025;-84
2021/06/05 01:28:43;;;;;;;496.67;124.75;;;;;;;15.73;100.00;102000.22;5243673;28;20027;-84
2021/06/05 01:31:19;;;;;;;487.48;127.85;;;;;;;15.73;100.00;101998.38;5244176;28;20032;-84
2021/06/05 01:33:52;;;;;;;464.20;127.75;;;;;;;15.79;100.00;102003.09;5223156;28;20468;-84
2021/06/05 01:36:26;;;;;;;509.23;129.13;;;;;;;15.77;100.00;101998.88;5238578;28;20028;-84
2021/06/05 01:39:02;;;;;;;427.92;114.20;;;;;;;15.75;100.00;101999.03;5243563;28;20017;-84
2021/06/05 01:41:37;;;;;;;376.25;110.63;;;;;;;15.82;100.00;102001.06;5244103;28;20020;-84
2021/06/05 01:44:09;;;;;;;386.83;109.97;;;;;;;15.75;100.00;101990.91;5243360;28;20020;-84
2021/06/05 01:46:45;;;;;;;346.70;101.43;;;;;;;15.66;100.00;101986.56;5243764;28;20029;-84
2021/06/05 01:49:19;;;;;;;300.65;95.30;;;;;;;15.62;100.00;101985.19;5243091;28;20119;-84
2021/06/05 01:51:55;;;;;;;322.48;97.35;;;;;;;15.62;100.00;101990.59;5243617;28;20028;-84
2021/06/05 01:54:30;;;;;;;305.60;98.18;;;;;;;15.60;100.00;101991.75;5243311;28;20103;-84
2021/06/05 01:57:06;;;;;;;308.70;94.97;;;;;;;15.58;100.00;101989.25;5243509;28;20426;-84
2021/06/05 01:59:36;;;;;;;308.27;96.13;;;;;;;15.54;100.00;101977.06;5222404;28;20021;-84
2021/06/05 02:02:07;;;;;;;299.73;94.72;;;;;;;15.59;100.00;101980.09;5237581;28;20017;-84
2021/06/05 02:04:42;;;;;;;296.08;94.00;;;;;;;15.58;100.00;101978.41;5242877;28;20028;-84
2021/06/05 02:07:19;;;;;;;311.20;97.10;;;;;;;15.56;100.00;101972.31;5243320;28;20028;-84
2021/06/05 02:09:51;;;;;;;315.55;98.40;;;;;;;15.49;100.00;101969.47;5231101;28;20036;-84
2021/06/05 02:12:31;;;;;;;316.08;98.85;;;;;;;15.49;100.00;101969.47;5242430;28;20028;-84
2021/06/05 02:15:15;;;;;;;342.13;104.10;;;;;;;15.48;100.00;101975.91;5242732;28;20388;-84
2021/06/05 02:17:46;;;;;;;309.95;95.25;;;;;;;15.54;100.00;101969.78;5242621;28;20113;-85
2021/06/05 02:20:24;;;;;;;298.48;92.88;;;;;;;15.54;100.00;101974.34;5242234;28;20024;-84
2021/06/05 02:22:59;;;;;;;320.52;97.20;;;;;;;15.46;100.00;101972.53;5242639;28;20475;-84
2021/06/05 02:25:30;;;;;;;318.20;94.32;;;;;;;15.55;100.00;101970.63;5242491;28;20031;-84
2021/06/05 02:28:03;;;;;;;334.52;95.60;;;;;;;15.49;100.00;101968.63;5242849;28;20025;-84
2021/06/05 02:30:34;;;;;;;328.10;98.18;;;;;;;15.47;100.00;101966.09;5242519;28;20035;-85
2021/06/05 02:33:06;;;;;;;311.85;92.95;;;;;;;15.53;100.00;101969.97;5239921;28;20028;-84
2021/06/05 02:35:40;;;;;;;337.98;95.68;;;;;;;15.49;100.00;101974.88;5237194;28;20100;-85
2021/06/05 02:38:13;;;;;;;331.83;95.80;;;;;;;15.46;100.00;101975.22;5239804;28;20419;-85
2021/06/05 02:40:45;;;;;;;341.38;98.22;;;;;;;15.42;100.00;101973.88;5229943;28;20029;-85
2021/06/05 02:43:19;;;;;;;312.20;92.65;;;;;;;15.39;100.00;101973.38;5234405;28;20021;-85
2021/06/05 02:46:03;;;;;;;277.17;93.63;;;;;;;15.39;100.00;101976.06;5236463;28;20028;-85
2021/06/05 02:48:52;;;;;;;272.15;95.30;;;;;;;15.35;100.00;101969.31;5242345;28;20031;-85
2021/06/05 02:51:27;;;;;;;257.75;93.57;;;;;;;15.31;100.00;101976.06;5237518;28;20056;-85
2021/06/05 02:53:58;;;;;;;239.57;91.82;;;;;;;15.28;100.00;101974.56;5241449;28;20447;-85
2021/06/05 02:56:29;;;;;;;243.63;93.40;;;;;;;15.29;100.00;101979.78;5245747;28;20115;-85
2021/06/05 02:59:00;;;;;;;253.73;94.97;;;;;;;15.23;100.00;101985.03;5245218;28;20025;-85
2021/06/05 03:01:31;;;;;;;247.55;95.38;;;;;;;15.23;100.00;101979.63;5246088;28;20024;-85
2021/06/05 03:04:02;;;;;;;238.25;93.90;;;;;;;15.25;100.00;101989.25;5241227;28;20061;-85
2021/06/05 03:06:33;;;;;;;222.27;93.63;;;;;;;15.28;100.00;101990.78;5236879;28;20028;-86
2021/06/05 03:09:05;;;;;;;224.70;93.07;;;;;;;15.24;100.00;101992.97;5245719;28;20021;-85
2021/06/05 03:11:36;;;;;;;227.77;94.70;;;;;;;15.26;100.00;101988.25;5232318;28;20114;-85
2021/06/05 03:14:06;;;;;;;224.90;91.53;;;;;;;15.18;100.00;101982.00;5238387;28;20020;-85
2021/06/05 03:16:37;;;;;;;221.45;91.25;;;;;;;15.23;100.00;101985.03;5239359;28;20063;-85
2021/06/05 03:19:08;;;;;;;204.43;87.55;;;;;;;15.23;100.00;101977.78;5238771;28;20028;-85
2021/06/05 03:21:38;;;;;;;183.25;83.57;;;;;;;15.23;100.00;101975.06;5240324;28;20178;-85
2021/06/05 03:24:09;;;;;;;186.35;85.25;;;;;;;15.19;100.00;101978.28;5227787;28;20025;-85
2021/06/05 03:26:40;;;;;;;212.73;86.45;;;;;;;15.15;100.00;101977.75;5240174;28;20043;-85
2021/06/05 03:29:10;;;;;;;193.32;83.32;;;;;;;15.10;100.00;101973.88;5238683;28;20484;-85
2021/06/05 03:31:41;;;;;;;188.85;84.18;;;;;;;15.07;100.00;101972.38;5241408;28;20025;-85
2021/06/05 03:34:11;;;;;;;186.93;83.35;;;;;;;15.08;100.00;101974.06;5240382;28;20364;-85
2021/06/05 03:36:42;;;;;;;171.88;80.72;;;;;;;15.10;100.00;101963.91;5246556;28;20105;-85
2021/06/05 03:39:12;;;;;;;188.32;84.28;;;;;;;15.12;100.00;101967.31;5247601;28;20241;-85
2021/06/05 03:41:44;;;;;;;185.43;80.35;;;;;;;15.15;100.00;101966.94;5247257;28;20472;-85
2021/06/05 03:44:14;;;;;;;198.70;86.03;;;;;;;15.11;100.00;101970.16;5247389;28;20518;-85
2021/06/05 03:46:45;;;;;;;200.55;85.53;;;;;;;15.07;100.00;101963.44;5246614;28;20020;-85
2021/06/05 03:49:16;;;;;;;207.52;87.80;;;;;;;15.06;100.00;101972.53;5246317;28;20020;-85
2021/06/05 03:51:46;;;;;;;195.25;83.57;;;;;;;15.09;100.00;101967.63;5247239;28;20123;-86
2021/06/05 03:54:17;;;;;;;186.05;83.47;;;;;;;15.04;100.00;101964.59;5247232;28;20071;-85
2021/06/05 03:56:47;;;;;;;170.65;76.47;;;;;;;15.01;100.00;101970.34;5247363;28;20060;-85
2021/06/05 03:59:18;;;;;;;166.07;77.22;;;;;;;15.03;100.00;101965.59;5246943;28;20031;-85
2021/06/05 04:01:49;;;;;;;168.55;76.45;;;;;;;15.06;100.00;101961.72;5245300;28;20029;-85
2021/06/05 04:04:20;;;;;;;165.68;75.95;;;;;;;15.02;100.00;101970.16;5246919;28;20027;-85
2021/06/05 04:06:51;;;;;;;145.30;67.15;;;;;;;15.07;100.00;101971.53;5246700;28;20094;-85
2021/06/05 04:09:22;;;;;;;137.07;66.80;;;;;;;15.00;100.00;101972.19;5247439;28;20025;-85
2021/06/05 04:11:52;;;;;;;133.23;65.03;;;;;;;15.06;100.00;101970.69;5246902;28;20029;-85
2021/06/05 04:14:23;;;;;;;130.43;63.88;;;;;;;15.04;100.00;101961.88;5246015;28;20479;-85
2021/06/05 04:16:53;;;;;;;128.40;62.50;;;;;;;15.09;100.00;101962.22;5246460;28;20096;-85
2021/06/05 04:19:24;;;;;;;110.53;58.03;;;;;;;15.14;100.00;101965.25;5247297;28;20047;-85
2021/06/05 04:21:56;;;;;;;122.93;58.35;;;;;;;15.05;100.00;101963.56;5246811;28;20450;-85
2021/06/05 04:24:27;;;;;;;124.65;58.47;;;;;;;14.97;100.00;101967.13;5247319;28;20032;-85
2021/06/05 04:26:57;;;;;;;124.10;60.67;;;;;;;14.98;100.00;101973.38;5245449;28;20020;-85
2021/06/05 04:29:29;;;;;;;112.57;57.42;;;;;;;14.97;100.00;101966.28;5245260;28;20058;-85
2021/06/05 04:31:59;;;;;;;117.35;55.45;;;;;;;14.99;100.00;101970.50;5244525;28;20024;-85
2021/06/05 04:34:30;;;;;;;121.50;56.67;;;;;;;14.91;100.00;101967.81;5244708;28;20459;-85
2021/06/05 04:37:01;;;;;;;110.63;54.53;;;;;;;14.85;100.00;101968.44;5243810;28;20036;-85
2021/06/05 04:39:32;;;;;;;100.78;51.45;;;;;;;14.90;100.00;101965.25;5244267;28;20031;-85
2021/06/05 04:42:03;;;;;;;107.00;52.50;;;;;;;14.94;100.00;101977.41;5244206;28;20017;-86
2021/06/05 04:44:34;;;;;;;116.20;53.28;;;;;;;14.92;100.00;101974.06;5244272;28;20263;-85
2021/06/05 04:47:05;;;;;;;102.20;49.80;;;;;;;14.84;100.00;101974.03;5244365;28;20101;-85
2021/06/05 04:49:35;;;;;;;118.65;53.78;;;;;;;14.83;100.00;101977.75;5243751;28;20421;-85
2021/06/05 04:52:06;;;;;;;103.85;52.90;;;;;;;14.84;100.00;101984.84;5243619;28;20728;-86
2021/06/05 04:54:37;;;;;;;106.72;50.33;;;;;;;14.83;100.00;101981.28;5243891;28;20032;-86
2021/06/05 04:57:08;;;;;;;111.97;53.63;;;;;;;14.79;100.00;101988.03;5243325;28;20119;-85
2021/06/05 04:59:38;;;;;;;109.80;53.85;;;;;;;14.89;100.00;101980.63;5243481;28;20064;-85
2021/06/05 05:02:09;;;;;;;100.60;50.33;;;;;;;14.89;100.00;101983.31;5244389;28;20221;-85
2021/06/05 05:04:43;;;;;;;101.22;49.97;;;;;;;14.89;100.00;101987.88;5251376;28;20017;-83
2021/06/05 05:07:14;;;;;;;96.45;48.55;;;;;;;14.88;100.00;101983.50;5249777;28;20283;-82
2021/06/05 05:09:45;;;;;;;97.50;49.83;;;;;;;14.83;100.00;101994.81;5252341;28;20031;-83
2021/06/05 05:12:15;;;;;;;91.65;46.70;;;;;;;14.91;100.00;101994.81;5253507;28;20387;-82
2021/06/05 05:14:46;;;;;;;85.40;45.47;;;;;;;14.86;100.00;102004.41;5253653;28;20395;-82
2021/06/05 05:17:17;;;;;;;93.85;48.25;;;;;;;14.78;100.00;101997.16;5250802;28;20079;-85
2021/06/05 05:19:47;;;;;;;89.90;44.90;;;;;;;14.85;100.00;102002.72;5249263;28;20032;-84
2021/06/05 05:22:18;;;;;;;79.25;42.28;;;;;;;14.85;100.00;102003.56;5245402;28;20392;-83
2021/06/05 05:24:48;;;;;;;78.32;41.40;;;;;;;14.88;100.00;102005.13;5245128;28;20063;-84
2021/06/05 05:27:19;;;;;;;79.72;42.42;;;;;;;14.90;100.00;102005.78;5246128;28;20032;-85
2021/06/05 05:29:49;;;;;;;87.97;43.17;;;;;;;14.87;100.00;102006.13;5245114;28;20059;-84
2021/06/05 05:32:20;;;;;;;85.00;41.53;;;;;;;14.85;100.00;102014.38;5244671;28;20051;-85
2021/06/05 05:34:50;;;;;;;82.93;43.10;;;;;;;14.91;100.00;102008.34;5243131;28;20392;-84
2021/06/05 05:37:21;;;;;;;87.55;42.67;;;;;;;14.87;100.00;102014.22;5244564;28;20553;-84
2021/06/05 05:39:51;;;;;;;75.88;40.28;;;;;;;14.83;100.00;102013.72;5247898;28;20020;-83
2021/06/05 05:42:22;;;;;;;79.25;40.38;;;;;;;14.94;100.00;102015.25;5247057;28;20508;-84
2021/06/05 05:44:52;;;;;;;81.72;39.55;;;;;;;14.90;100.00;102022.84;5243603;28;20032;-85
2021/06/05 05:47:23;;;;;;;76.30;39.30;;;;;;;14.86;100.00;102021.50;5242452;28;20139;-85
2021/06/05 05:49:53;;;;;;;76.65;39.88;;;;;;;14.84;100.00;102019.97;5242221;28;20012;-84
2021/06/05 05:52:24;;;;;;;83.38;40.78;;;;;;;14.89;100.00;102028.41;5242564;28;20055;-83
2021/06/05 05:54:55;;;;;;;79.25;40.38;;;;;;;14.88;100.00;102032.97;5243512;28;20035;-84
2021/06/05 05:57:25;;;;;;;71.13;38.38;;;;;;;14.91;100.00;102029.94;5242880;28;20430;-85
2021/06/05 05:59:56;;;;;;;71.53;40.08;;;;;;;14.86;100.00;102028.72;5242709;28;20021;-85
2021/06/05 06:02:27;;;;;;;75.80;40.50;;;;;;;14.88;100.00;102032.97;5242447;28;20028;-83
2021/06/05 06:04:57;;;;;;;78.25;41.42;;;;;;;14.85;100.00;102043.25;5243691;28;20020;-84
2021/06/05 06:07:27;;;;;;;80.28;43.72;;;;;;;14.89;100.00;102042.75;5242592;28;20025;-85
2021/06/05 06:09:59;;;;;;;85.78;44.38;;;;;;;14.81;100.00;102048.16;5241684;28;20059;-84
2021/06/05 06:12:29;;;;;;;85.28;43.58;;;;;;;14.94;100.00;102050.38;5242419;28;20506;-84
2021/06/05 06:15:00;;;;;;;89.40;45.67;;;;;;;14.91;100.00;102062.38;5242058;28;20032;-84
2021/06/05 06:17:30;;;;;;;91.88;46.55;;;;;;;14.92;100.00;102060.50;5240674;28;20025;-84
2021/06/05 06:20:01;;;;;;;95.20;48.08;;;;;;;14.88;100.00;102065.41;5242404;28;20032;-84
2021/06/05 06:22:32;;;;;;;95.10;46.30;;;;;;;14.86;100.00;102075.53;5242593;28;20119;-84
2021/06/05 06:25:06;;;;;;;113.57;50.78;;;;;;;14.83;100.00;102072.31;5243840;28;20480;-84
2021/06/05 06:27:36;;;;;;;110.22;50.08;;;;;;;14.84;100.00;102074.00;5248295;28;20437;-84
2021/06/05 06:30:09;;;;;;;107.55;50.72;;;;;;;14.83;100.00;102083.13;5247454;28;20047;-84
2021/06/05 06:32:39;;;;;;;117.93;55.05;;;;;;;14.85;100.00;102083.78;5247555;28;20025;-83
2021/06/05 06:35:10;;;;;;;105.78;48.30;;;;;;;14.84;100.00;102087.50;5247794;28;20052;-84
2021/06/05 06:37:41;;;;;;;101.35;49.58;;;;;;;14.81;100.00;102090.50;5247719;28;20519;-84
2021/06/05 06:40:11;;;;;;;102.70;48.55;;;;;;;14.87;100.00;102096.13;5245775;28;20040;-84
2021/06/05 06:42:42;;;;;;;101.53;47.92;;;;;;;14.78;100.00;102094.41;5247640;28;20021;-84
2021/06/05 06:45:13;;;;;;;111.38;47.65;;;;;;;14.77;100.00;102092.72;5247184;28;20395;-84
2021/06/05 06:47:44;;;;;;;109.65;50.00;;;;;;;14.84;100.00;102092.91;5244558;28;20107;-82
2021/06/05 06:50:18;;;;;;;112.07;50.13;;;;;;;14.82;100.00;102094.94;5244885;28;20665;-84
2021/06/05 06:52:49;;;;;;;113.57;49.35;;;;;;;14.86;100.00;102096.28;5245892;28;20037;-84
2021/06/05 06:55:22;;;;;;;107.40;48.03;;;;;;;14.83;100.00;102096.63;5245551;28;20523;-84
2021/06/05 06:57:53;;;;;;;113.80;49.05;;;;;;;14.85;100.00;102100.84;5246277;28;20483;-83
2021/06/05 07:00:29;;;;;;;125.13;49.70;;;;;;;14.84;100.00;102104.56;5245755;28;20107;-83
2021/06/05 07:03:00;;;;;;;116.82;48.72;;;;;;;14.88;100.00;102108.63;5246162;28;20033;-84
2021/06/05 07:05:31;;;;;;;123.70;50.75;;;;;;;14.88;100.00;102110.47;5245482;28;20081;-84
2021/06/05 07:08:17;;;;;;;129.77;54.25;;;;;;;14.91;100.00;102115.53;5245268;28;20178;-83
2021/06/05 07:10:52;;;;;;;135.13;52.95;;;;;;;14.93;100.00;102117.09;5245088;28;20044;-84
2021/06/05 07:13:24;;;;;;;122.90;52.65;;;;;;;14.94;100.00;102121.47;5244754;28;20048;-84
2021/06/05 07:15:57;;;;;;;122.43;53.58;;;;;;;14.90;100.00;102119.25;5245024;28;20021;-84
2021/06/05 07:18:30;;;;;;;122.70;49.92;;;;;;;14.95;100.00;102130.41;5247232;28;20448;-84
2021/06/05 07:21:02;;;;;;;145.52;56.08;;;;;;;14.98;100.00;102125.53;5247011;28;20059;-84
2021/06/05 07:23:35;;;;;;;130.82;53.90;;;;;;;14.92;100.00;102131.59;5246371;28;20081;-84
2021/06/05 07:26:10;;;;;;;130.70;52.28;;;;;;;14.93;100.00;102137.84;5245161;28;20052;-84
2021/06/05 07:28:43;;;;;;;;;;;;;;;14.96;100.00;102142.91;5247102;28;20134;-82
2021/06/05 07:31:18;;;;;;;107.03;49.15;;;;;;;14.85;100.00;102133.25;5247933;28;20374;-84
2021/06/05 07:33:50;;;;;;;123.68;51.35;;;;;;;15.00;100.00;102136.19;5247750;28;20074;-83
2021/06/05 07:36:26;;;;;;;132.13;50.72;;;;;;;15.02;100.00;102135.03;5247944;28;20044;-84
2021/06/05 07:38:57;;;;;;;114.47;50.97;;;;;;;15.01;100.00;102136.03;5248486;28;20443;-84
2021/06/05 07:41:28;;;;;;;120.82;49.95;;;;;;;14.97;100.00;102136.53;5248032;28;20059;-84
2021/06/05 07:43:58;;;;;;;124.25;47.90;;;;;;;14.98;100.00;102138.22;5248232;28;20028;-84
2021/06/05 07:46:29;;;;;;;143.23;52.20;;;;;;;14.99;100.00;102146.16;5248296;28;20025;-85
2021/06/05 07:49:00;;;;;;;118.72;50.78;;;;;;;14.99;100.00;102142.59;5247585;28;20028;-84
2021/06/05 07:51:30;;;;;;;135.10;51.95;;;;;;;14.98;100.00;102144.47;5247740;28;20031;-84
2021/06/05 07:54:01;;;;;;;138.45;54.20;;;;;;;14.98;100.00;102141.75;5248046;28;20028;-84
2021/06/05 07:56:33;;;;;;;147.98;54.17;;;;;;;14.96;100.00;102141.09;5248098;28;20036;-84
2021/06/05 07:59:04;;;;;;;142.35;54.72;;;;;;;15.05;100.00;102147.34;5247479;28;20107;-84
2021/06/05 08:01:34;;;;;;;153.02;55.75;;;;;;;15.09;100.00;102142.47;5247183;28;20679;-84
2021/06/05 08:04:05;;;;;;;147.95;56.22;;;;;;;15.15;100.00;102144.50;5245589;28;20032;-84
2021/06/05 08:06:35;;;;;;;152.57;60.63;;;;;;;15.12;100.00;102143.00;5242563;28;20032;-83
2021/06/05 08:09:07;;;;;;;160.45;61.83;;;;;;;15.24;100.00;102146.22;5236478;28;20019;-82
2021/06/05 08:11:40;;;;;;;154.55;58.65;;;;;;;15.28;100.00;102144.88;5225042;28;20090;-81
2021/06/05 08:14:11;;;;;;;157.63;59.60;;;;;;;15.28;100.00;102140.31;5249875;28;20084;-82
2021/06/05 08:16:42;;;;;;;132.75;55.20;;;;;;;15.38;100.00;102139.31;5246524;28;20147;-82
2021/06/05 08:19:14;;;;;;;129.27;55.55;;;;;;;15.41;100.00;102134.44;5243926;28;20059;-82
2021/06/05 08:21:46;;;;;;;127.93;55.92;;;;;;;15.54;100.00;102139.34;5244152;28;20526;-84
2021/06/05 08:24:19;;;;;;;105.30;49.50;;;;;;;15.63;100.00;102134.78;5243833;28;20423;-83
2021/06/05 08:26:52;;;;;;;92.63;45.35;;;;;;;15.62;100.00;102133.94;5245213;28;20405;-83
2021/06/05 08:29:23;;;;;;;106.47;51.40;;;;;;;15.57;100.00;102133.63;5244576;28;20122;-82
2021/06/05 08:31:53;;;;;;;98.78;47.45;;;;;;;15.66;100.00;102135.34;5242238;28;20029;-82
2021/06/05 08:34:25;;;;;;;88.65;47.50;;;;;;;15.67;100.00;102131.63;5243685;28;20029;-82
2021/06/05 08:36:55;;;;;;;99.15;48.38;;;;;;;15.68;100.00;102138.72;5242076;28;20484;-81
2021/06/05 08:39:26;;;;;;;91.22;48.95;;;;;;;15.60;100.00;102133.25;5244302;28;20060;-82
2021/06/05 08:42:00;;;;;;;93.82;46.78;;;;;;;15.62;100.00;102136.66;5243291;28;20024;-83
2021/06/05 08:44:40;;;;;;;98.40;48.97;;;;;;;15.61;100.00;102126.81;5250696;28;20024;-82
2021/06/05 08:47:28;;;;;;;96.90;48.60;;;;;;;15.80;100.00;102128.38;5247890;28;20472;-82
2021/06/05 08:50:09;;;;;;;82.93;45.67;;;;;;;15.87;100.00;102129.41;5249350;28;20043;-82
2021/06/05 08:52:51;;;;;;;91.88;47.72;;;;;;;15.94;100.00;102122.31;5252047;28;20035;-82
2021/06/05 08:55:27;;;;;;;91.63;46.88;;;;;;;16.00;100.00;102126.19;5249456;28;20036;-82
2021/06/05 08:58:33;;;;;;;89.07;48.30;;;;;;;16.02;100.00;102129.59;5251909;28;20031;-82
2021/06/05 09:01:12;;;;;;;88.93;45.60;;;;;;;15.98;100.00;102125.50;5212583;28;20045;-82
2021/06/05 09:03:50;;;;;;;87.80;47.00;;;;;;;16.08;100.00;102130.75;5252302;28;20162;-81
2021/06/05 09:06:44;;;;;;;81.63;46.08;;;;;;;16.18;100.00;102134.97;5248534;28;20096;-82
2021/06/05 09:09:18;;;;;;;88.15;46.63;;;;;;;16.19;100.00;102127.69;5249708;28;20023;-82
2021/06/05 09:11:50;;;;;;;93.80;49.92;;;;;;;16.11;100.00;102135.81;5250984;28;20099;-82
2021/06/05 09:14:22;;;;;;;88.75;48.13;;;;;;;16.16;100.00;102131.56;5255055;28;20012;-82
2021/06/05 09:16:54;;;;;;;100.32;51.60;;;;;;;16.09;100.00;102132.44;5264704;28;20072;-82
2021/06/05 09:19:28;;;;;;;99.20;51.92;;;;;;;16.16;100.00;102131.56;5261318;28;20040;-81
2021/06/05 09:22:05;;;;;;;102.03;52.58;;;;;;;16.14;100.00;102139.03;5242804;28;20111;-82
2021/06/05 09:24:35;;;;;;;99.85;50.45;;;;;;;16.18;100.00;102137.66;5243081;28;20032;-81
2021/06/05 09:27:19;;;;;;;95.80;49.90;;;;;;;16.07;100.00;102139.91;5246626;28;20442;-83
2021/06/05 09:29:55;;;;;;;99.32;48.22;;;;;;;16.09;100.00;102137.84;5257705;28;20062;-82
2021/06/05 09:32:33;;;;;;;97.70;47.92;;;;;;;15.99;100.00;102138.88;5254775;28;20032;-83
2021/06/05 09:35:05;;;;;;;98.55;48.80;;;;;;;16.10;100.00;102153.06;5243702;28;20029;-82
2021/06/05 09:37:40;;;;;;;114.05;54.85;;;;;;;15.98;100.00;102148.00;5249226;28;20033;-81
2021/06/05 09:40:26;;;;;;;106.23;53.00;;;;;;;16.00;100.00;102158.66;5261470;28;20025;-82
2021/06/05 09:43:16;;;;;;;110.40;54.28;;;;;;;15.96;100.00;102157.31;5254175;28;20032;-83
2021/06/05 09:46:04;;;;;;;122.53;58.95;;;;;;;15.82;100.00;102155.31;5247646;28;20103;-83
2021/06/05 09:48:40;;;;;;;109.50;56.40;;;;;;;16.02;100.00;102168.31;5253332;28;20013;-83
2021/06/05 09:51:33;;;;;;;114.78;58.85;;;;;;;15.93;100.00;102163.06;5247550;28;20361;-85
2021/06/05 09:54:14;;;;;;;101.57;51.38;;;;;;;16.07;100.00;102167.81;5242172;28;20056;-84
2021/06/05 09:56:48;;;;;;;94.95;48.20;;;;;;;16.13;100.00;102161.69;5231094;28;20036;-83
2021/06/05 09:59:29;;;;;;;82.75;45.58;;;;;;;16.22;100.00;102176.09;5242808;28;20062;-84
2021/06/05 10:02:05;;;;;;;90.30;49.45;;;;;;;16.15;100.00;102169.66;5242375;28;20044;-84
2021/06/05 10:04:37;;;;;;;86.28;45.25;;;;;;;16.21;100.00;102177.06;5242436;28;20078;-82
2021/06/05 10:07:24;;;;;;;92.07;47.90;;;;;;;16.08;100.00;102184.91;5256526;28;20103;-82
2021/06/05 10:10:02;;;;;;;87.80;48.55;;;;;;;16.12;100.00;102186.25;5253781;28;20349;-82
2021/06/05 10:12:39;;;;;;;77.70;42.42;;;;;;;16.17;100.00;102192.84;5250839;28;20031;-83
2021/06/05 10:15:14;;;;;;;81.15;44.65;;;;;;;16.14;100.00;102192.31;5248313;28;20028;-83
2021/06/05 10:17:56;;;;;;;83.03;44.00;;;;;;;16.02;100.00;102200.78;5251073;28;20135;-81
2021/06/05 10:20:36;;;;;;;79.13;42.42;;;;;;;16.11;100.00;102198.91;5258190;28;20021;-82
2021/06/05 10:23:08;;;;;;;77.82;42.10;;;;;;;16.08;100.00;102196.56;5256927;28;20043;-83
2021/06/05 10:25:42;;;;;;;67.25;39.97;;;;;;;15.99;100.00;102197.56;5257338;28;20029;-83
2021/06/05 10:28:20;;;;;;;75.93;42.75;;;;;;;15.88;100.00;102189.81;5246177;28;20162;-82
2021/06/05 10:30:55;;;;;;;76.78;42.97;;;;;;;15.84;100.00;102193.84;5246534;28;20028;-82
2021/06/05 10:33:39;;;;;;;;;;;;;;;15.79;100.00;102203.31;5245880;28;20499;-83
2021/06/05 10:36:26;;;;;;;75.32;42.17;;;;;;;15.87;100.00;102197.06;5246306;28;20215;-82
2021/06/05 10:39:04;;;;;;;85.82;44.70;;;;;;;15.82;100.00;102198.59;5239936;28;20048;-82
2021/06/05 10:41:42;;;;;;;81.53;42.90;;;;;;;15.67;100.00;102218.19;5245357;28;20016;-82
2021/06/05 10:44:12;;;;;;;72.45;42.22;;;;;;;15.69;100.00;102216.16;5244904;28;20372;-83
2021/06/05 10:46:48;;;;;;;81.15;41.53;;;;;;;15.69;100.00;102221.56;5242045;28;20025;-83
2021/06/05 10:49:22;;;;;;;76.50;41.95;;;;;;;15.71;100.00;102226.78;5242178;28;20480;-83
2021/06/05 10:52:05;;;;;;;84.45;45.40;;;;;;;15.77;100.00;102226.16;5241364;28;20036;-82
2021/06/05 10:54:43;;;;;;;77.90;43.90;;;;;;;15.86;100.00;102230.53;5241526;28;20029;-82
2021/06/05 10:57:19;;;;;;;81.47;45.13;;;;;;;15.77;100.00;102228.84;5241410;28;20360;-83
2021/06/05 10:59:55;;;;;;;70.47;40.10;;;;;;;15.77;100.00;102234.28;5230610;28;20538;-84
2021/06/05 11:02:46;;;;;;;78.85;41.50;;;;;;;15.81;100.00;102227.47;5239502;28;20089;-83
2021/06/05 11:05:16;;;;;;;90.15;47.83;;;;;;;15.74;100.00;102231.88;5254103;28;20048;-84
2021/06/05 11:07:50;;;;;;;90.20;46.83;;;;;;;15.86;100.00;102237.81;5241181;28;20067;-83
2021/06/05 11:10:52;;;;;;;88.90;48.03;;;;;;;16.00;100.00;102220.91;5241140;28;20067;-84
2021/06/05 11:13:32;;;;;;;87.53;46.15;;;;;;;16.11;100.00;102220.56;5244787;28;20434;-83
2021/06/05 11:16:08;;;;;;;97.40;51.55;;;;;;;16.07;100.00;102212.97;5246891;28;20025;-84
2021/06/05 11:18:43;;;;;;;92.60;48.72;;;;;;;16.06;100.00;102217.53;5246309;28;20025;-83
2021/06/05 11:21:21;;;;;;;;;;;;;;;16.07;100.00;102221.94;5253315;28;20023;-83
2021/06/05 11:23:56;;;;;;;104.00;51.67;;;;;;;16.04;100.00;102219.56;5250566;28;19958;-84
2021/06/05 11:26:40;;;;;;;93.85;48.10;;;;;;;16.11;100.00;102223.28;5248327;28;20396;-84